createdAt,value
2018-09-23T00:02:15.537Z,98405.23
2018-09-23T00:04:47.812Z,98409.09
2018-09-23T00:07:20.176Z,98410.59
2018-09-23T00:09:52.541Z,98405.55
2018-09-23T00:12:24.819Z,98400.81
2018-09-23T00:14:57.160Z,98408.59
2018-09-23T00:17:29.450Z,98402.16
2018-09-23T00:20:01.773Z,98398.30
2018-09-23T00:22:34.067Z,98389.77
2018-09-23T00:25:06.443Z,98386.58
2018-09-23T00:27:38.819Z,98392.53
2018-09-23T00:30:11.158Z,98401.53
2018-09-23T00:32:43.453Z,98398.65
2018-09-23T00:35:15.785Z,98390.75
2018-09-23T00:37:48.072Z,98395.41
2018-09-23T00:40:20.401Z,98398.13
2018-09-23T00:42:52.653Z,98398.13
2018-09-23T00:45:24.961Z,98401.20
2018-09-23T00:47:57.212Z,98395.91
2018-09-23T00:50:29.528Z,98396.06
2018-09-23T00:53:01.852Z,98383.68
2018-09-23T00:55:40.960Z,98383.68
2018-09-23T00:58:13.241Z,98375.09
2018-09-23T01:00:45.514Z,98374.22
2018-09-23T01:03:17.793Z,98369.16
2018-09-23T01:05:50.157Z,98359.74
2018-09-23T01:08:22.443Z,98347.86
2018-09-23T01:10:54.782Z,98358.41
2018-09-23T01:13:27.077Z,98345.61
2018-09-23T01:15:59.409Z,98351.31
2018-09-23T01:18:31.692Z,98350.80
2018-09-23T01:21:04.004Z,98342.80
2018-09-23T01:23:36.296Z,98337.68
2018-09-23T01:26:08.620Z,98340.41
2018-09-23T01:28:40.903Z,98332.05
2018-09-23T01:31:13.236Z,98339.55
2018-09-23T01:33:45.521Z,98330.16
2018-09-23T01:36:17.824Z,98317.71
2018-09-23T01:38:50.123Z,98302.31
2018-09-23T01:41:22.502Z,98293.81
2018-09-23T01:43:54.744Z,98282.41
2018-09-23T01:46:27.040Z,98291.13
2018-09-23T01:48:59.300Z,98293.45
2018-09-23T01:51:31.604Z,98289.20
2018-09-23T01:54:03.882Z,98289.10
2018-09-23T01:56:36.205Z,98286.84
2018-09-23T01:59:08.450Z,98277.39
2018-09-23T02:01:40.772Z,98264.84
2018-09-23T02:04:13.020Z,98271.72
2018-09-23T02:06:45.319Z,98272.02
2018-09-23T02:09:17.577Z,98260.80
2018-09-23T02:11:49.831Z,98257.45
2018-09-23T02:14:22.126Z,98252.56
2018-09-23T02:16:54.420Z,98247.77
2018-09-23T02:19:26.731Z,98237.48
2018-09-23T02:21:59.003Z,98236.30
2018-09-23T02:24:31.256Z,98231.48
2018-09-23T02:27:03.601Z,98224.83
2018-09-23T02:29:35.901Z,98222.53
2018-09-23T02:32:08.132Z,98219.97
2018-09-23T02:34:40.413Z,98209.60
2018-09-23T02:37:12.655Z,98206.23
2018-09-23T02:39:44.943Z,98192.13
2018-09-23T02:42:17.220Z,98187.78
2018-09-23T02:44:49.463Z,98185.60
2018-09-23T02:47:21.705Z,98179.47
2018-09-23T02:49:54.012Z,98173.88
2018-09-23T02:52:26.303Z,98171.69
2018-09-23T02:54:58.600Z,98159.27
2018-09-23T02:57:30.825Z,98163.69
2018-09-23T03:00:03.220Z,98155.66
2018-09-23T03:02:35.508Z,98149.36
2018-09-23T03:05:07.814Z,98135.78
2018-09-23T03:07:40.108Z,98127.95
2018-09-23T03:10:12.455Z,98113.72
2018-09-23T03:12:44.736Z,98116.75
2018-09-23T03:15:17.027Z,98118.05
2018-09-23T03:17:49.315Z,98111.16
2018-09-23T03:20:21.626Z,98109.95
2018-09-23T03:22:53.892Z,98110.83
2018-09-23T03:25:26.157Z,98104.18
2018-09-23T03:27:58.408Z,98099.45
2018-09-23T03:30:30.749Z,98094.42
2018-09-23T03:33:03.009Z,98091.72
2018-09-23T03:35:35.312Z,98086.66
2018-09-23T03:38:07.674Z,98078.00
2018-09-23T03:40:40.014Z,98078.81
2018-09-23T03:43:12.275Z,98071.59
2018-09-23T03:45:44.579Z,98061.64
2018-09-23T03:48:16.825Z,98059.02
2018-09-23T03:50:49.094Z,98045.95
2018-09-23T03:53:21.362Z,98046.10
2018-09-23T03:55:53.617Z,98038.25
2018-09-23T03:58:25.906Z,98030.56
2018-09-23T04:00:58.176Z,98029.90
2018-09-23T04:03:30.433Z,98018.35
2018-09-23T04:06:02.719Z,98020.92
2018-09-23T04:08:35.072Z,98008.10
2018-09-23T04:11:07.561Z,97998.33
2018-09-23T04:13:39.824Z,97999.93
2018-09-23T04:16:12.092Z,98000.23
2018-09-23T04:18:44.363Z,98003.91
2018-09-23T04:21:16.646Z,98006.47
2018-09-23T04:23:48.972Z,97998.95
2018-09-23T04:26:21.236Z,97986.36
2018-09-23T04:28:53.529Z,97986.21
2018-09-23T04:31:25.756Z,97980.27
2018-09-23T04:33:58.026Z,97986.21
2018-09-23T04:36:30.260Z,97980.11
2018-09-23T04:39:02.761Z,97986.37
2018-09-23T04:41:35.060Z,97981.86
2018-09-23T04:44:07.332Z,97985.42
2018-09-23T04:46:39.614Z,97972.13
2018-09-23T04:49:11.883Z,97971.01
2018-09-23T04:51:44.133Z,97968.91
2018-09-23T04:54:16.425Z,97963.45
2018-09-23T04:56:48.689Z,97961.36
2018-09-23T04:59:21.006Z,97961.53
2018-09-23T05:01:53.269Z,97963.05
2018-09-23T05:04:25.834Z,97955.33
2018-09-23T05:06:58.153Z,97957.98
2018-09-23T05:09:30.420Z,97953.25
2018-09-23T05:12:02.695Z,97958.04
2018-09-23T05:14:34.969Z,97963.09
2018-09-23T05:17:07.239Z,97959.88
2018-09-23T05:19:39.568Z,97960.72
2018-09-23T05:22:11.886Z,97962.18
2018-09-23T05:24:44.185Z,97956.31
2018-09-23T05:27:23.307Z,97943.80
2018-09-23T05:29:55.651Z,97950.43
2018-09-23T05:32:27.925Z,97950.22
2018-09-23T05:35:00.218Z,97951.50
2018-09-23T05:37:32.503Z,97943.92
2018-09-23T05:40:05.609Z,97938.38
2018-09-23T05:42:37.952Z,97937.33
2018-09-23T05:45:10.482Z,97945.67
2018-09-23T05:47:43.284Z,97938.88
2018-09-23T05:50:15.597Z,97936.45
2018-09-23T05:52:47.913Z,97936.92
2018-09-23T05:55:20.248Z,97940.72
2018-09-23T05:57:52.537Z,97937.38
2018-09-23T06:00:25.194Z,97939.36
2018-09-23T06:02:57.546Z,97946.74
2018-09-23T06:05:29.857Z,97948.26
2018-09-23T06:08:02.142Z,97942.63
2018-09-23T06:10:34.441Z,97948.31
2018-09-23T06:13:06.781Z,97950.78
2018-09-23T06:15:39.194Z,97941.66
2018-09-23T06:18:11.472Z,97943.50
2018-09-23T06:20:43.777Z,97930.11
2018-09-23T06:23:16.043Z,97929.98
2018-09-23T06:25:48.352Z,97933.83
2018-09-23T06:28:20.926Z,97928.55
2018-09-23T06:30:53.254Z,97925.33
2018-09-23T06:33:25.600Z,97919.98
2018-09-23T06:35:57.896Z,97927.91
2018-09-23T06:38:30.257Z,97928.05
2018-09-23T06:41:02.520Z,97923.69
2018-09-23T06:43:34.877Z,97925.80
2018-09-23T06:46:07.197Z,97922.30
2018-09-23T06:48:39.520Z,97912.63
2018-09-23T06:51:11.885Z,97901.28
2018-09-23T06:53:44.176Z,97903.25
2018-09-23T06:56:16.459Z,97892.50
2018-09-23T06:58:48.830Z,97887.08
2018-09-23T07:01:21.119Z,97886.45
2018-09-23T07:03:53.437Z,97883.34
2018-09-23T07:06:25.768Z,97891.59
2018-09-23T07:08:58.107Z,97893.55
2018-09-23T07:11:30.437Z,97887.13
2018-09-23T07:14:02.747Z,97900.38
2018-09-23T07:16:35.075Z,97899.13
2018-09-23T07:19:07.448Z,97900.83
2018-09-23T07:21:39.769Z,97899.34
2018-09-23T07:24:12.186Z,97902.95
2018-09-23T07:26:44.351Z,97900.42
2018-09-23T07:29:16.655Z,97888.05
2018-09-23T07:31:48.945Z,97896.51
2018-09-23T07:34:21.252Z,97893.75
2018-09-23T07:36:53.626Z,97895.70
2018-09-23T07:39:25.925Z,97893.02
2018-09-23T07:41:58.997Z,97892.17
2018-09-23T07:44:31.254Z,97882.64
2018-09-23T07:47:03.657Z,97886.92
2018-09-23T07:49:35.974Z,97887.61
2018-09-23T07:52:08.343Z,97875.75
2018-09-23T07:54:40.669Z,97874.47
2018-09-23T07:57:12.996Z,97863.00
2018-09-23T07:59:45.314Z,97878.27
2018-09-23T08:02:17.695Z,97867.10
2018-09-23T08:04:50.034Z,97869.52
2018-09-23T08:07:22.409Z,97870.58
2018-09-23T08:09:54.753Z,97862.54
2018-09-23T08:12:27.172Z,97870.58
2018-09-23T08:14:59.560Z,97859.23
2018-09-23T08:17:31.763Z,97855.25
2018-09-23T08:20:04.199Z,97856.84
2018-09-23T08:22:36.568Z,97860.51
2018-09-23T08:25:08.973Z,97855.71
2018-09-23T08:27:41.306Z,97856.63
2018-09-23T08:30:13.634Z,97864.77
2018-09-23T08:32:46.023Z,97868.09
2018-09-23T08:35:18.329Z,97871.44
2018-09-23T08:37:50.695Z,97868.92
2018-09-23T08:40:23.028Z,97870.08
2018-09-23T08:42:55.470Z,97848.27
2018-09-23T08:45:27.779Z,97851.57
2018-09-23T08:48:00.146Z,97849.88
2018-09-23T08:50:39.163Z,97854.87
2018-09-23T08:53:11.484Z,97851.06
2018-09-23T08:55:43.774Z,97849.77
2018-09-23T08:58:16.115Z,97848.34
2018-09-23T09:00:48.413Z,97848.76
2018-09-23T09:03:20.863Z,97843.50
2018-09-23T09:05:53.257Z,97830.95
2018-09-23T09:08:25.550Z,97830.32
2018-09-23T09:10:57.855Z,97821.89
2018-09-23T09:13:30.209Z,97826.63
2018-09-23T09:16:02.515Z,97834.56
2018-09-23T09:18:34.933Z,97835.59
2018-09-23T09:21:07.134Z,97844.83
2018-09-23T09:23:39.412Z,97839.28
2018-09-23T09:26:11.733Z,97838.95
2018-09-23T09:28:44.070Z,97836.27
2018-09-23T09:31:16.651Z,97840.93
2018-09-23T09:33:48.991Z,97830.86
2018-09-23T09:36:21.354Z,97817.77
2018-09-23T09:38:53.762Z,97808.92
2018-09-23T09:41:26.129Z,97807.85
2018-09-23T09:43:58.524Z,97804.06
2018-09-23T09:46:30.819Z,97797.31
2018-09-23T09:49:03.152Z,97794.86
2018-09-23T09:51:35.491Z,97797.19
2018-09-23T09:54:07.857Z,97793.44
2018-09-23T09:56:40.159Z,97788.84
2018-09-23T09:59:12.525Z,97777.86
2018-09-23T10:01:44.917Z,97779.48
2018-09-23T10:04:17.404Z,97776.72
2018-09-23T10:06:49.751Z,97776.30
2018-09-23T10:09:22.095Z,97780.68
2018-09-23T10:11:54.483Z,97771.62
2018-09-23T10:14:26.806Z,97763.58
2018-09-23T10:16:59.125Z,97763.64
2018-09-23T10:19:31.471Z,97751.63
2018-09-23T10:22:03.833Z,97747.95
2018-09-23T10:24:36.175Z,97747.51
2018-09-23T10:27:08.486Z,97736.35
2018-09-23T10:29:40.806Z,97740.31
2018-09-23T10:32:13.105Z,97743.11
2018-09-23T10:34:45.363Z,97731.03
2018-09-23T10:37:17.657Z,97732.03
2018-09-23T10:39:49.980Z,97733.51
2018-09-23T10:42:22.655Z,97727.55
2018-09-23T10:44:55.052Z,97716.88
2018-09-23T10:47:27.459Z,97710.70
2018-09-23T10:49:59.775Z,97697.05
2018-09-23T10:52:32.145Z,97698.62
2018-09-23T10:55:04.566Z,97685.14
2018-09-23T10:57:36.877Z,97687.73
2018-09-23T11:00:09.230Z,97686.23
2018-09-23T11:02:41.560Z,97681.80
2018-09-23T11:05:26.676Z,97677.58
2018-09-23T11:07:59.068Z,97671.40
2018-09-23T11:10:31.456Z,97655.23
2018-09-23T11:13:03.824Z,97661.15
2018-09-23T11:15:36.105Z,97646.50
2018-09-23T11:18:08.450Z,97648.44
2018-09-23T11:20:40.846Z,97635.67
2018-09-23T11:23:13.258Z,97629.42
2018-09-23T11:25:45.620Z,97626.22
2018-09-23T11:28:18.012Z,97617.13
2018-09-23T11:30:50.434Z,97606.41
2018-09-23T11:33:22.714Z,97609.20
2018-09-23T11:35:55.036Z,97587.52
2018-09-23T11:38:27.367Z,97594.52
2018-09-23T11:40:59.706Z,97579.80
2018-09-23T11:43:32.029Z,97577.19
2018-09-23T11:46:04.377Z,97575.13
2018-09-23T11:48:36.693Z,97566.05
2018-09-23T11:51:09.108Z,97557.84
2018-09-23T11:53:41.435Z,97559.58
2018-09-23T11:56:13.830Z,97550.91
2018-09-23T11:58:46.232Z,97556.98
2018-09-23T12:01:18.540Z,97528.29
2018-09-23T12:03:50.921Z,97527.00
2018-09-23T12:06:23.290Z,97517.86
2018-09-23T12:08:55.644Z,97509.14
2018-09-23T12:11:27.946Z,97512.62
2018-09-23T12:14:00.302Z,97514.34
2018-09-23T12:16:32.633Z,97501.72
2018-09-23T12:19:04.993Z,97503.89
2018-09-23T12:21:37.306Z,97502.97
2018-09-23T12:24:09.661Z,97500.83
2018-09-23T12:26:42.034Z,97498.64
2018-09-23T12:29:14.395Z,97493.36
2018-09-23T12:31:46.741Z,97490.36
2018-09-23T12:34:19.077Z,97478.20
2018-09-23T12:36:51.414Z,97478.66
2018-09-23T12:39:23.843Z,97487.41
2018-09-23T12:41:56.145Z,97484.34
2018-09-23T12:44:28.457Z,97479.55
2018-09-23T12:47:00.772Z,97464.33
2018-09-23T12:49:33.110Z,97469.12
2018-09-23T12:52:05.854Z,97451.72
2018-09-23T12:54:38.229Z,97447.34
2018-09-23T12:57:10.545Z,97436.02
2018-09-23T12:59:42.888Z,97432.50
2018-09-23T13:02:15.217Z,97425.52
2018-09-23T13:04:47.490Z,97408.06
2018-09-23T13:07:19.818Z,97401.95
2018-09-23T13:09:52.120Z,97405.00
2018-09-23T13:12:24.438Z,97398.85
2018-09-23T13:14:56.904Z,97399.28
2018-09-23T13:17:29.273Z,97381.81
2018-09-23T13:20:01.599Z,97375.25
2018-09-23T13:22:33.932Z,97385.75
2018-09-23T13:25:06.292Z,97378.75
2018-09-23T13:27:38.626Z,97369.13
2018-09-23T13:30:11.106Z,97364.30
2018-09-23T13:32:43.444Z,97348.98
2018-09-23T13:35:15.787Z,97348.17
2018-09-23T13:37:48.070Z,97343.34
2018-09-23T13:40:20.401Z,97336.77
2018-09-23T13:42:52.710Z,97321.98
2018-09-23T13:45:25.047Z,97308.44
2018-09-23T13:47:57.353Z,97306.20
2018-09-23T13:50:29.737Z,97310.13
2018-09-23T13:53:02.066Z,97303.98
2018-09-23T13:55:34.486Z,97307.96
2018-09-23T13:58:06.859Z,97269.03
2018-09-23T14:00:39.194Z,97271.36
2018-09-23T14:03:11.514Z,97279.62
2018-09-23T14:05:43.922Z,97270.78
2018-09-23T14:08:16.221Z,97253.50
2018-09-23T14:10:48.610Z,97266.45
2018-09-23T14:13:20.916Z,97249.80
2018-09-23T14:15:53.639Z,97247.56
2018-09-23T14:18:25.957Z,97258.02
2018-09-23T14:20:58.293Z,97217.48
2018-09-23T14:23:30.874Z,97238.89
2018-09-23T14:26:03.183Z,97233.73
2018-09-23T14:28:35.536Z,97221.20
2018-09-23T14:31:07.804Z,97233.86
2018-09-23T14:33:40.165Z,97232.59
2018-09-23T14:36:12.506Z,97236.09
2018-09-23T14:38:44.886Z,97221.42
2018-09-23T14:41:17.280Z,97203.54
2018-09-23T14:43:49.592Z,97196.17
2018-09-23T14:46:21.966Z,97193.50
2018-09-23T14:48:54.384Z,97183.52
2018-09-23T14:51:26.672Z,97193.08
2018-09-23T14:53:59.025Z,97166.13
2018-09-23T14:56:31.337Z,97168.67
2018-09-23T14:59:03.740Z,97153.39
2018-09-23T15:01:36.108Z,97141.16
2018-09-23T15:04:08.460Z,97140.59
2018-09-23T15:06:40.829Z,97114.11
2018-09-23T15:09:13.237Z,97116.28
2018-09-23T15:11:45.607Z,97115.16
2018-09-23T15:14:18.016Z,97106.72
2018-09-23T15:16:50.368Z,97105.00
2018-09-23T15:19:22.746Z,97101.94
2018-09-23T15:21:55.115Z,97098.43
2018-09-23T15:24:27.455Z,97102.64
2018-09-23T15:26:59.760Z,97106.23
2018-09-23T15:29:32.135Z,97095.77
2018-09-23T15:32:04.476Z,97091.56
2018-09-23T15:34:36.843Z,97081.17
2018-09-23T15:37:09.269Z,97086.00
2018-09-23T15:39:41.630Z,97083.04
2018-09-23T15:42:13.960Z,97079.95
2018-09-23T15:44:46.420Z,97065.98
2018-09-23T15:47:18.763Z,97064.27
2018-09-23T15:49:51.120Z,97055.00
2018-09-23T15:52:23.566Z,97056.68
2018-09-23T15:54:55.896Z,97042.80
2018-09-23T15:57:28.269Z,97019.19
2018-09-23T16:00:00.630Z,97030.99
2018-09-23T16:02:32.976Z,97031.85
2018-09-23T16:05:05.401Z,97009.14
2018-09-23T16:07:37.744Z,97020.98
2018-09-23T16:10:10.069Z,97030.54
2018-09-23T16:12:42.425Z,97046.75
2018-09-23T16:15:15.268Z,97052.35
2018-09-23T16:17:47.593Z,97040.67
2018-09-23T16:20:19.949Z,97038.20
2018-09-23T16:22:52.347Z,97010.77
2018-09-23T16:25:24.685Z,97030.00
2018-09-23T16:27:57.048Z,97036.08
2018-09-23T16:30:29.408Z,97015.70
2018-09-23T16:33:01.780Z,97007.87
2018-09-23T16:35:34.181Z,97020.55
2018-09-23T16:38:06.516Z,97008.83
2018-09-23T16:40:38.920Z,97011.07
2018-09-23T16:43:11.338Z,97006.30
2018-09-23T16:45:43.666Z,97037.22
2018-09-23T16:48:15.982Z,97042.98
2018-09-23T16:50:48.310Z,97039.96
2018-09-23T16:53:20.720Z,97070.49
2018-09-23T16:55:53.077Z,97288.98
2018-09-23T16:58:26.261Z,97303.52
2018-09-23T17:00:58.616Z,97353.02
2018-09-23T17:03:31.037Z,97315.91
2018-09-23T17:06:03.490Z,97340.66
2018-09-23T17:08:36.247Z,97341.46
2018-09-23T17:11:08.677Z,97354.44
2018-09-23T17:13:41.066Z,97341.02
2018-09-23T17:16:13.560Z,97278.67
2018-09-23T17:18:45.899Z,97333.80
2018-09-23T17:21:18.271Z,97374.34
2018-09-23T17:23:50.646Z,97352.36
2018-09-23T17:26:22.980Z,97358.10
2018-09-23T17:28:55.489Z,97376.74
2018-09-23T17:31:27.865Z,97375.08
2018-09-23T17:34:00.264Z,97368.13
2018-09-23T17:36:32.695Z,97383.19
2018-09-23T17:39:07.687Z,97318.83
2018-09-23T17:41:40.460Z,97299.31
2018-09-23T17:44:12.858Z,97317.37
2018-09-23T17:46:45.210Z,97322.40
2018-09-23T17:49:17.604Z,97340.59
2018-09-23T17:51:50.021Z,97352.73
2018-09-23T17:54:22.467Z,97357.53
2018-09-23T17:56:55.006Z,97360.45
2018-09-23T17:59:27.338Z,97370.04
2018-09-23T18:01:59.817Z,97396.08
2018-09-23T18:04:32.221Z,97450.25
2018-09-23T18:07:04.698Z,97467.69
2018-09-23T18:09:37.131Z,97457.87
2018-09-23T18:12:09.501Z,97441.02
2018-09-23T18:14:41.933Z,97424.19
2018-09-23T18:17:14.271Z,97414.11
2018-09-23T18:19:46.711Z,97411.84
2018-09-23T18:22:19.147Z,97398.12
2018-09-23T18:24:51.727Z,97410.10
2018-09-23T18:27:24.097Z,97432.28
2018-09-23T18:29:56.544Z,97455.80
2018-09-23T18:32:28.998Z,97461.36
2018-09-23T18:35:01.555Z,97474.70
2018-09-23T18:37:33.979Z,97516.89
2018-09-23T18:40:06.839Z,97550.84
2018-09-23T18:42:39.278Z,97579.55
2018-09-23T18:45:11.674Z,97597.61
2018-09-23T18:47:44.171Z,97625.75
2018-09-23T18:50:16.566Z,97652.48
2018-09-23T18:52:53.487Z,97694.27
2018-09-23T18:55:31.523Z,97712.36
2018-09-23T18:58:03.995Z,97759.64
2018-09-23T19:00:36.533Z,97804.06
2018-09-23T19:03:09.235Z,97804.93
2018-09-23T19:05:41.775Z,97758.20
2018-09-23T19:08:14.110Z,97775.48
2018-09-23T19:10:46.504Z,97794.40
2018-09-23T19:13:24.545Z,97809.97
2018-09-23T19:16:02.609Z,97801.65
2018-09-23T19:18:34.988Z,97821.90
2018-09-23T19:21:07.696Z,97813.50
2018-09-23T19:23:41.015Z,97797.30
2018-09-23T19:26:13.377Z,97793.97
2018-09-23T19:28:45.810Z,97798.80
2018-09-23T19:31:18.141Z,97810.83
2018-09-23T19:33:50.550Z,97831.16
2018-09-23T19:36:22.976Z,97824.88
2018-09-23T19:38:55.313Z,97863.02
2018-09-23T19:41:27.755Z,97882.09
2018-09-23T19:44:00.166Z,97898.65
2018-09-23T19:46:32.610Z,97907.41
2018-09-23T19:49:05.172Z,97950.13
2018-09-23T19:51:37.607Z,97999.32
2018-09-23T19:54:10.039Z,98004.36
2018-09-23T19:56:42.439Z,98000.94
2018-09-23T19:59:14.807Z,98022.77
2018-09-23T20:01:47.277Z,98022.46
2018-09-23T20:04:19.577Z,98026.91
2018-09-23T20:06:52.132Z,98024.34
2018-09-23T20:09:24.412Z,98028.91
2018-09-23T20:11:56.818Z,98047.89
2018-09-23T20:14:29.299Z,98056.36
2018-09-23T20:17:01.620Z,98022.73
2018-09-23T20:19:33.969Z,98020.14
2018-09-23T20:22:06.813Z,98035.07
2018-09-23T20:24:39.173Z,98027.28
2018-09-23T20:27:11.497Z,98055.48
2018-09-23T20:29:43.917Z,98082.57
2018-09-23T20:32:16.221Z,98097.95
2018-09-23T20:34:48.620Z,98082.32
2018-09-23T20:37:20.978Z,98090.36
2018-09-23T20:39:53.452Z,98122.70
2018-09-23T20:42:25.789Z,98135.10
2018-09-23T20:44:58.188Z,98125.09
2018-09-23T20:47:30.629Z,98154.81
2018-09-23T20:50:03.183Z,98175.48
2018-09-23T20:52:35.508Z,98191.72
2018-09-23T20:55:07.853Z,98207.33
2018-09-23T20:57:40.249Z,98216.77
2018-09-23T21:00:12.618Z,98237.95
2018-09-23T21:02:44.954Z,98252.70
2018-09-23T21:05:17.404Z,98275.35
2018-09-23T21:07:49.748Z,98284.70
2018-09-23T21:10:22.235Z,98299.77
2018-09-23T21:12:54.665Z,98316.79
2018-09-23T21:15:27.030Z,98326.69
2018-09-23T21:17:59.342Z,98313.83
2018-09-23T21:20:31.738Z,98311.03
2018-09-23T21:23:04.069Z,98310.67
2018-09-23T21:25:36.495Z,98325.87
2018-09-23T21:28:08.762Z,98320.75
2018-09-23T21:30:41.096Z,98304.52
2018-09-23T21:33:13.420Z,98303.94
2018-09-23T21:35:45.759Z,98307.34
2018-09-23T21:38:18.067Z,98313.97
2018-09-23T21:40:50.371Z,98324.90
2018-09-23T21:43:22.797Z,98317.03
2018-09-23T21:45:55.109Z,98331.88
2018-09-23T21:48:27.485Z,98348.63
2018-09-23T21:50:59.750Z,98349.88
2018-09-23T21:53:32.086Z,98361.51
2018-09-23T21:56:04.368Z,98376.15
2018-09-23T21:58:36.697Z,98394.39
2018-09-23T22:01:08.997Z,98390.88
2018-09-23T22:03:41.309Z,98395.38
2018-09-23T22:06:13.652Z,98400.61
2018-09-23T22:08:45.938Z,98411.44
2018-09-23T22:11:18.225Z,98410.69
2018-09-23T22:13:50.556Z,98430.47
2018-09-23T22:16:22.839Z,98431.93
2018-09-23T22:18:55.187Z,98450.73
2018-09-23T22:21:27.572Z,98469.21
2018-09-23T22:23:59.870Z,98492.47
2018-09-23T22:26:32.228Z,98508.84
2018-09-23T22:29:04.538Z,98536.30
2018-09-23T22:31:36.852Z,98544.16
2018-09-23T22:34:09.120Z,98555.70
2018-09-23T22:36:41.374Z,98561.21
2018-09-23T22:39:13.676Z,98561.89
2018-09-23T22:41:45.966Z,98580.63
2018-09-23T22:44:18.305Z,98590.72
2018-09-23T22:46:50.613Z,98600.64
2018-09-23T22:49:22.946Z,98616.19
2018-09-23T22:51:55.268Z,98627.70
2018-09-23T22:54:27.600Z,98633.90
2018-09-23T22:56:59.846Z,98653.29
2018-09-23T22:59:32.152Z,98657.33
2018-09-23T23:02:06.696Z,98656.45
2018-09-23T23:04:38.970Z,98658.26
2018-09-23T23:07:11.228Z,98666.00
2018-09-23T23:09:43.539Z,98681.00
2018-09-23T23:12:15.819Z,98686.73
2018-09-23T23:14:48.071Z,98701.98
2018-09-23T23:17:20.333Z,98709.28
2018-09-23T23:19:52.601Z,98717.75
2018-09-23T23:22:24.870Z,98736.34
2018-09-23T23:24:57.173Z,98741.53
2018-09-23T23:27:29.445Z,98755.95
2018-09-23T23:30:01.712Z,98767.26
2018-09-23T23:32:33.974Z,98778.37
2018-09-23T23:35:06.383Z,98777.18
2018-09-23T23:37:38.614Z,98790.18
2018-09-23T23:40:10.870Z,98797.19
2018-09-23T23:42:43.099Z,98805.87
2018-09-23T23:45:15.372Z,98811.27
2018-09-23T23:47:47.617Z,98817.59
2018-09-23T23:50:19.997Z,98813.76
2018-09-23T23:52:52.274Z,98822.98
2018-09-23T23:55:24.563Z,98828.32
2018-09-23T23:57:56.807Z,98839.16
